sensor_id;sensor_type;location;lat;lon;timestamp;P1;durP1;ratioP1;P2;durP2;ratioP2
82646;SDS011;72325;41.910;22.404;2023-09-30T00:00:40;7.07;;;3.90;;
82646;SDS011;72325;41.910;22.404;2023-09-30T00:03:06;5.18;;;3.92;;
82646;SDS011;72325;41.910;22.404;2023-09-30T00:05:32;6.35;;;3.60;;
82646;SDS011;72325;41.910;22.404;2023-09-30T00:07:58;7.97;;;4.38;;
82646;SDS011;72325;41.910;22.404;2023-09-30T00:10:24;7.57;;;3.90;;
82646;SDS011;72325;41.910;22.404;2023-09-30T00:15:54;7.85;;;3.95;;
82646;SDS011;72325;41.910;22.404;2023-09-30T00:18:20;11.38;;;4.35;;
82646;SDS011;72325;41.910;22.404;2023-09-30T00:20:46;6.38;;;4.57;;
82646;SDS011;72325;41.910;22.404;2023-09-30T00:23:13;8.32;;;4.35;;
82646;SDS011;72325;41.910;22.404;2023-09-30T00:25:39;11.32;;;4.40;;
82646;SDS011;72325;41.910;22.404;2023-09-30T00:28:05;6.82;;;4.47;;
82646;SDS011;72325;41.910;22.404;2023-09-30T00:30:31;9.75;;;4.60;;
82646;SDS011;72325;41.910;22.404;2023-09-30T00:32:57;11.45;;;4.13;;
82646;SDS011;72325;41.910;22.404;2023-09-30T00:35:24;5.95;;;4.07;;
82646;SDS011;72325;41.910;22.404;2023-09-30T00:37:50;10.43;;;4.50;;
82646;SDS011;72325;41.910;22.404;2023-09-30T00:40:16;6.63;;;4.40;;
82646;SDS011;72325;41.910;22.404;2023-09-30T00:45:51;8.45;;;4.03;;
82646;SDS011;72325;41.910;22.404;2023-09-30T00:48:17;7.35;;;3.65;;
82646;SDS011;72325;41.910;22.404;2023-09-30T00:50:43;9.70;;;4.22;;
82646;SDS011;72325;41.910;22.404;2023-09-30T00:53:10;7.28;;;4.30;;
82646;SDS011;72325;41.910;22.404;2023-09-30T00:55:36;6.85;;;3.85;;
82646;SDS011;72325;41.910;22.404;2023-09-30T00:58:02;8.35;;;4.18;;
82646;SDS011;72325;41.910;22.404;2023-09-30T01:00:28;8.38;;;4.15;;
82646;SDS011;72325;41.910;22.404;2023-09-30T01:02:54;6.35;;;3.90;;
82646;SDS011;72325;41.910;22.404;2023-09-30T01:05:21;7.07;;;4.60;;
82646;SDS011;72325;41.910;22.404;2023-09-30T01:07:48;5.93;;;4.00;;
82646;SDS011;72325;41.910;22.404;2023-09-30T01:10:14;5.53;;;3.85;;
82646;SDS011;72325;41.910;22.404;2023-09-30T01:15:44;9.63;;;4.10;;
82646;SDS011;72325;41.910;22.404;2023-09-30T01:18:13;7.38;;;4.25;;
82646;SDS011;72325;41.910;22.404;2023-09-30T01:20:39;7.82;;;4.43;;
82646;SDS011;72325;41.910;22.404;2023-09-30T01:23:06;7.35;;;3.80;;
82646;SDS011;72325;41.910;22.404;2023-09-30T01:25:32;5.68;;;3.97;;
82646;SDS011;72325;41.910;22.404;2023-09-30T01:31:04;6.85;;;4.13;;
82646;SDS011;72325;41.910;22.404;2023-09-30T01:33:30;7.95;;;4.55;;
82646;SDS011;72325;41.910;22.404;2023-09-30T01:35:57;7.45;;;4.22;;
82646;SDS011;72325;41.910;22.404;2023-09-30T01:38:23;9.90;;;4.40;;
82646;SDS011;72325;41.910;22.404;2023-09-30T01:40:49;8.05;;;4.00;;
82646;SDS011;72325;41.910;22.404;2023-09-30T01:43:15;5.57;;;4.00;;
82646;SDS011;72325;41.910;22.404;2023-09-30T01:45:41;6.85;;;4.43;;
82646;SDS011;72325;41.910;22.404;2023-09-30T01:48:08;7.10;;;4.65;;
82646;SDS011;72325;41.910;22.404;2023-09-30T01:50:40;6.70;;;4.57;;
82646;SDS011;72325;41.910;22.404;2023-09-30T01:53:06;5.82;;;4.05;;
82646;SDS011;72325;41.910;22.404;2023-09-30T01:55:34;8.00;;;4.47;;
82646;SDS011;72325;41.910;22.404;2023-09-30T02:01:04;8.48;;;4.60;;
82646;SDS011;72325;41.910;22.404;2023-09-30T02:03:30;6.38;;;4.03;;
82646;SDS011;72325;41.910;22.404;2023-09-30T02:05:57;9.20;;;4.47;;
82646;SDS011;72325;41.910;22.404;2023-09-30T02:08:23;10.45;;;4.70;;
82646;SDS011;72325;41.910;22.404;2023-09-30T02:10:49;6.78;;;4.18;;
82646;SDS011;72325;41.910;22.404;2023-09-30T02:13:19;7.90;;;4.45;;
82646;SDS011;72325;41.910;22.404;2023-09-30T02:15:45;9.27;;;4.70;;
82646;SDS011;72325;41.910;22.404;2023-09-30T02:18:11;7.35;;;4.13;;
82646;SDS011;72325;41.910;22.404;2023-09-30T02:20:37;7.53;;;4.38;;
82646;SDS011;72325;41.910;22.404;2023-09-30T02:23:08;8.77;;;4.05;;
82646;SDS011;72325;41.910;22.404;2023-09-30T02:25:35;10.65;;;5.05;;
82646;SDS011;72325;41.910;22.404;2023-09-30T02:31:05;7.03;;;4.53;;
82646;SDS011;72325;41.910;22.404;2023-09-30T02:33:32;9.40;;;4.55;;
82646;SDS011;72325;41.910;22.404;2023-09-30T02:36:02;9.63;;;4.32;;
82646;SDS011;72325;41.910;22.404;2023-09-30T02:38:31;5.93;;;3.92;;
82646;SDS011;72325;41.910;22.404;2023-09-30T02:40:57;10.43;;;4.60;;
82646;SDS011;72325;41.910;22.404;2023-09-30T02:43:23;9.18;;;4.65;;
82646;SDS011;72325;41.910;22.404;2023-09-30T02:45:49;9.10;;;5.45;;
82646;SDS011;72325;41.910;22.404;2023-09-30T02:48:15;11.02;;;4.85;;
82646;SDS011;72325;41.910;22.404;2023-09-30T02:50:42;7.85;;;4.35;;
82646;SDS011;72325;41.910;22.404;2023-09-30T02:53:11;11.40;;;4.40;;
82646;SDS011;72325;41.910;22.404;2023-09-30T02:55:41;10.65;;;5.10;;
82646;SDS011;72325;41.910;22.404;2023-09-30T03:01:13;10.32;;;5.80;;
82646;SDS011;72325;41.910;22.404;2023-09-30T03:03:41;10.50;;;4.90;;
82646;SDS011;72325;41.910;22.404;2023-09-30T03:06:09;7.65;;;5.00;;
82646;SDS011;72325;41.910;22.404;2023-09-30T03:08:35;8.45;;;5.05;;
82646;SDS011;72325;41.910;22.404;2023-09-30T03:11:02;9.30;;;4.68;;
82646;SDS011;72325;41.910;22.404;2023-09-30T03:13:28;7.80;;;4.53;;
82646;SDS011;72325;41.910;22.404;2023-09-30T03:15:55;10.95;;;4.75;;
82646;SDS011;72325;41.910;22.404;2023-09-30T03:18:22;10.32;;;5.00;;
82646;SDS011;72325;41.910;22.404;2023-09-30T03:20:57;7.63;;;5.28;;
82646;SDS011;72325;41.910;22.404;2023-09-30T03:23:25;10.43;;;4.75;;
82646;SDS011;72325;41.910;22.404;2023-09-30T03:25:59;9.70;;;4.50;;
82646;SDS011;72325;41.910;22.404;2023-09-30T03:32:03;7.93;;;4.15;;
82646;SDS011;72325;41.910;22.404;2023-09-30T03:34:30;6.93;;;4.38;;
82646;SDS011;72325;41.910;22.404;2023-09-30T03:36:56;7.53;;;4.40;;
82646;SDS011;72325;41.910;22.404;2023-09-30T03:39:24;8.45;;;4.88;;
82646;SDS011;72325;41.910;22.404;2023-09-30T03:41:55;9.27;;;5.03;;
82646;SDS011;72325;41.910;22.404;2023-09-30T03:44:23;9.48;;;4.72;;
82646;SDS011;72325;41.910;22.404;2023-09-30T03:46:50;13.43;;;5.05;;
82646;SDS011;72325;41.910;22.404;2023-09-30T03:49:16;8.07;;;4.30;;
82646;SDS011;72325;41.910;22.404;2023-09-30T03:51:43;8.88;;;4.40;;
82646;SDS011;72325;41.910;22.404;2023-09-30T03:54:09;7.95;;;4.20;;
82646;SDS011;72325;41.910;22.404;2023-09-30T03:56:36;9.43;;;4.70;;
82646;SDS011;72325;41.910;22.404;2023-09-30T03:59:03;8.82;;;4.60;;
82646;SDS011;72325;41.910;22.404;2023-09-30T04:01:29;11.60;;;5.35;;
82646;SDS011;72325;41.910;22.404;2023-09-30T04:03:56;9.00;;;4.53;;
82646;SDS011;72325;41.910;22.404;2023-09-30T04:06:22;7.15;;;4.65;;
82646;SDS011;72325;41.910;22.404;2023-09-30T04:08:48;7.03;;;4.53;;
82646;SDS011;72325;41.910;22.404;2023-09-30T04:14:18;6.70;;;4.10;;
82646;SDS011;72325;41.910;22.404;2023-09-30T04:16:46;10.13;;;5.35;;
82646;SDS011;72325;41.910;22.404;2023-09-30T04:19:12;8.55;;;5.30;;
82646;SDS011;72325;41.910;22.404;2023-09-30T04:21:39;10.60;;;4.95;;
82646;SDS011;72325;41.910;22.404;2023-09-30T04:24:05;7.25;;;4.60;;
82646;SDS011;72325;41.910;22.404;2023-09-30T04:29:35;9.65;;;5.07;;
82646;SDS011;72325;41.910;22.404;2023-09-30T04:32:01;9.32;;;4.82;;
82646;SDS011;72325;41.910;22.404;2023-09-30T04:34:27;9.63;;;4.97;;
82646;SDS011;72325;41.910;22.404;2023-09-30T04:36:54;9.00;;;4.70;;
82646;SDS011;72325;41.910;22.404;2023-09-30T04:39:20;11.88;;;5.00;;
82646;SDS011;72325;41.910;22.404;2023-09-30T04:44:49;8.70;;;4.95;;
82646;SDS011;72325;41.910;22.404;2023-09-30T04:47:15;6.60;;;4.53;;
82646;SDS011;72325;41.910;22.404;2023-09-30T04:49:43;8.38;;;4.40;;
82646;SDS011;72325;41.910;22.404;2023-09-30T04:52:09;8.25;;;4.47;;
82646;SDS011;72325;41.910;22.404;2023-09-30T04:54:36;6.45;;;4.53;;
82646;SDS011;72325;41.910;22.404;2023-09-30T05:00:06;9.07;;;5.15;;
82646;SDS011;72325;41.910;22.404;2023-09-30T05:02:35;11.82;;;5.28;;
82646;SDS011;72325;41.910;22.404;2023-09-30T05:05:02;11.13;;;5.68;;
82646;SDS011;72325;41.910;22.404;2023-09-30T05:07:31;13.52;;;5.60;;
82646;SDS011;72325;41.910;22.404;2023-09-30T05:09:57;10.13;;;5.90;;
82646;SDS011;72325;41.910;22.404;2023-09-30T05:15:28;11.00;;;5.22;;
82646;SDS011;72325;41.910;22.404;2023-09-30T05:17:57;10.68;;;5.43;;
82646;SDS011;72325;41.910;22.404;2023-09-30T05:20:23;9.05;;;5.38;;
82646;SDS011;72325;41.910;22.404;2023-09-30T05:22:49;12.90;;;5.40;;
82646;SDS011;72325;41.910;22.404;2023-09-30T05:25:15;15.93;;;7.18;;
82646;SDS011;72325;41.910;22.404;2023-09-30T05:30:45;30.88;;;15.10;;
82646;SDS011;72325;41.910;22.404;2023-09-30T05:33:11;18.73;;;10.50;;
82646;SDS011;72325;41.910;22.404;2023-09-30T05:35:42;17.85;;;8.13;;
82646;SDS011;72325;41.910;22.404;2023-09-30T05:38:08;13.10;;;7.93;;
82646;SDS011;72325;41.910;22.404;2023-09-30T05:40:35;21.90;;;9.15;;
82646;SDS011;72325;41.910;22.404;2023-09-30T05:46:05;15.73;;;8.00;;
82646;SDS011;72325;41.910;22.404;2023-09-30T05:48:32;17.38;;;8.70;;
82646;SDS011;72325;41.910;22.404;2023-09-30T05:50:58;18.35;;;8.93;;
82646;SDS011;72325;41.910;22.404;2023-09-30T05:53:24;28.27;;;14.55;;
82646;SDS011;72325;41.910;22.404;2023-09-30T05:55:50;23.08;;;11.50;;
82646;SDS011;72325;41.910;22.404;2023-09-30T06:01:19;16.92;;;7.60;;
82646;SDS011;72325;41.910;22.404;2023-09-30T06:03:46;13.60;;;7.47;;
82646;SDS011;72325;41.910;22.404;2023-09-30T06:06:12;15.93;;;8.07;;
82646;SDS011;72325;41.910;22.404;2023-09-30T06:08:42;11.38;;;7.68;;
82646;SDS011;72325;41.910;22.404;2023-09-30T06:11:17;13.43;;;6.60;;
82646;SDS011;72325;41.910;22.404;2023-09-30T06:16:47;9.82;;;6.53;;
82646;SDS011;72325;41.910;22.404;2023-09-30T06:19:15;10.43;;;6.80;;
82646;SDS011;72325;41.910;22.404;2023-09-30T06:21:41;14.40;;;7.15;;
82646;SDS011;72325;41.910;22.404;2023-09-30T06:24:07;14.57;;;8.05;;
82646;SDS011;72325;41.910;22.404;2023-09-30T06:26:33;18.85;;;9.77;;
82646;SDS011;72325;41.910;22.404;2023-09-30T06:28:59;13.73;;;8.95;;
82646;SDS011;72325;41.910;22.404;2023-09-30T06:31:25;19.88;;;10.35;;
82646;SDS011;72325;41.910;22.404;2023-09-30T06:33:53;18.23;;;9.27;;
82646;SDS011;72325;41.910;22.404;2023-09-30T06:36:23;13.90;;;7.63;;
82646;SDS011;72325;41.910;22.404;2023-09-30T06:38:49;16.70;;;8.32;;
82646;SDS011;72325;41.910;22.404;2023-09-30T06:41:17;14.98;;;7.97;;
82646;SDS011;72325;41.910;22.404;2023-09-30T06:46:46;14.32;;;6.00;;
82646;SDS011;72325;41.910;22.404;2023-09-30T06:49:15;14.68;;;6.10;;
82646;SDS011;72325;41.910;22.404;2023-09-30T06:51:41;15.40;;;5.80;;
82646;SDS011;72325;41.910;22.404;2023-09-30T06:54:08;20.13;;;9.88;;
82646;SDS011;72325;41.910;22.404;2023-09-30T06:56:34;20.33;;;9.45;;
82646;SDS011;72325;41.910;22.404;2023-09-30T06:59:00;15.18;;;8.52;;
82646;SDS011;72325;41.910;22.404;2023-09-30T07:01:27;12.38;;;6.80;;
82646;SDS011;72325;41.910;22.404;2023-09-30T07:03:53;12.80;;;6.65;;
82646;SDS011;72325;41.910;22.404;2023-09-30T07:06:23;24.42;;;7.38;;
82646;SDS011;72325;41.910;22.404;2023-09-30T07:08:50;12.65;;;6.80;;
82646;SDS011;72325;41.910;22.404;2023-09-30T07:11:16;14.00;;;6.60;;
82646;SDS011;72325;41.910;22.404;2023-09-30T07:16:45;13.02;;;5.60;;
82646;SDS011;72325;41.910;22.404;2023-09-30T07:19:12;13.68;;;5.93;;
82646;SDS011;72325;41.910;22.404;2023-09-30T07:21:38;11.73;;;5.82;;
82646;SDS011;72325;41.910;22.404;2023-09-30T07:24:04;11.65;;;5.80;;
82646;SDS011;72325;41.910;22.404;2023-09-30T07:26:30;15.60;;;9.68;;
82646;SDS011;72325;41.910;22.404;2023-09-30T07:32:18;9.40;;;5.70;;
82646;SDS011;72325;41.910;22.404;2023-09-30T07:34:48;9.85;;;5.60;;
82646;SDS011;72325;41.910;22.404;2023-09-30T07:37:14;10.68;;;5.55;;
82646;SDS011;72325;41.910;22.404;2023-09-30T07:39:42;10.07;;;5.82;;
82646;SDS011;72325;41.910;22.404;2023-09-30T07:42:08;10.35;;;6.28;;
82646;SDS011;72325;41.910;22.404;2023-09-30T07:44:35;11.25;;;6.75;;
82646;SDS011;72325;41.910;22.404;2023-09-30T07:47:02;9.45;;;5.25;;
82646;SDS011;72325;41.910;22.404;2023-09-30T07:49:29;11.07;;;5.60;;
82646;SDS011;72325;41.910;22.404;2023-09-30T07:51:55;13.13;;;8.63;;
82646;SDS011;72325;41.910;22.404;2023-09-30T07:54:21;10.38;;;5.53;;
82646;SDS011;72325;41.910;22.404;2023-09-30T07:56:47;11.90;;;5.97;;
82646;SDS011;72325;41.910;22.404;2023-09-30T07:59:14;13.05;;;6.82;;
82646;SDS011;72325;41.910;22.404;2023-09-30T08:01:41;11.82;;;5.13;;
82646;SDS011;72325;41.910;22.404;2023-09-30T08:04:07;10.00;;;5.15;;
82646;SDS011;72325;41.910;22.404;2023-09-30T08:06:33;11.57;;;5.70;;
82646;SDS011;72325;41.910;22.404;2023-09-30T08:08:59;12.35;;;5.07;;
82646;SDS011;72325;41.910;22.404;2023-09-30T08:11:25;12.30;;;7.47;;
82646;SDS011;72325;41.910;22.404;2023-09-30T08:16:56;11.15;;;5.00;;
82646;SDS011;72325;41.910;22.404;2023-09-30T08:19:22;10.52;;;5.60;;
82646;SDS011;72325;41.910;22.404;2023-09-30T08:21:48;9.77;;;5.20;;
82646;SDS011;72325;41.910;22.404;2023-09-30T08:24:14;13.52;;;5.97;;
82646;SDS011;72325;41.910;22.404;2023-09-30T08:26:40;12.65;;;7.40;;
82646;SDS011;72325;41.910;22.404;2023-09-30T08:29:07;11.02;;;5.70;;
82646;SDS011;72325;41.910;22.404;2023-09-30T08:31:33;9.10;;;5.82;;
82646;SDS011;72325;41.910;22.404;2023-09-30T08:33:59;9.98;;;4.90;;
82646;SDS011;72325;41.910;22.404;2023-09-30T08:36:25;12.90;;;5.22;;
82646;SDS011;72325;41.910;22.404;2023-09-30T08:38:51;9.18;;;6.07;;
82646;SDS011;72325;41.910;22.404;2023-09-30T08:41:24;9.18;;;5.60;;
82646;SDS011;72325;41.910;22.404;2023-09-30T08:46:59;11.82;;;5.40;;
82646;SDS011;72325;41.910;22.404;2023-09-30T08:49:25;13.05;;;5.80;;
82646;SDS011;72325;41.910;22.404;2023-09-30T08:51:51;10.20;;;5.20;;
82646;SDS011;72325;41.910;22.404;2023-09-30T08:54:17;13.82;;;6.28;;
82646;SDS011;72325;41.910;22.404;2023-09-30T08:56:44;12.85;;;4.95;;
82646;SDS011;72325;41.910;22.404;2023-09-30T08:59:16;16.42;;;10.73;;
82646;SDS011;72325;41.910;22.404;2023-09-30T09:01:42;14.85;;;5.72;;
82646;SDS011;72325;41.910;22.404;2023-09-30T09:04:08;16.23;;;5.38;;
82646;SDS011;72325;41.910;22.404;2023-09-30T09:06:34;9.32;;;5.15;;
82646;SDS011;72325;41.910;22.404;2023-09-30T09:09:16;10.88;;;5.78;;
82646;SDS011;72325;41.910;22.404;2023-09-30T09:17:50;11.68;;;5.20;;
82646;SDS011;72325;41.910;22.404;2023-09-30T09:20:18;13.02;;;5.28;;
82646;SDS011;72325;41.910;22.404;2023-09-30T09:22:48;8.13;;;5.75;;
82646;SDS011;72325;41.910;22.404;2023-09-30T09:25:19;10.98;;;6.00;;
82646;SDS011;72325;41.910;22.404;2023-09-30T09:27:48;8.05;;;5.03;;
82646;SDS011;72325;41.910;22.404;2023-09-30T09:30:14;10.63;;;5.35;;
82646;SDS011;72325;41.910;22.404;2023-09-30T09:35:26;11.27;;;6.10;;
82646;SDS011;72325;41.910;22.404;2023-09-30T09:38:07;9.50;;;4.60;;
82646;SDS011;72325;41.910;22.404;2023-09-30T09:40:35;13.18;;;5.15;;
82646;SDS011;72325;41.910;22.404;2023-09-30T09:43:02;13.82;;;5.45;;
82646;SDS011;72325;41.910;22.404;2023-09-30T09:45:30;8.23;;;4.93;;
82646;SDS011;72325;41.910;22.404;2023-09-30T09:47:58;11.73;;;5.13;;
82646;SDS011;72325;41.910;22.404;2023-09-30T09:50:24;10.00;;;4.75;;
82646;SDS011;72325;41.910;22.404;2023-09-30T09:52:51;16.58;;;6.53;;
82646;SDS011;72325;41.910;22.404;2023-09-30T09:55:19;12.15;;;4.85;;
82646;SDS011;72325;41.910;22.404;2023-09-30T09:57:45;10.38;;;5.10;;
82646;SDS011;72325;41.910;22.404;2023-09-30T10:00:21;10.90;;;5.20;;
82646;SDS011;72325;41.910;22.404;2023-09-30T10:02:48;10.43;;;7.15;;
82646;SDS011;72325;41.910;22.404;2023-09-30T10:05:15;16.15;;;5.75;;
82646;SDS011;72325;41.910;22.404;2023-09-30T10:07:47;19.52;;;10.38;;
82646;SDS011;72325;41.910;22.404;2023-09-30T10:10:18;10.55;;;5.22;;
82646;SDS011;72325;41.910;22.404;2023-09-30T10:12:44;10.43;;;5.80;;
82646;SDS011;72325;41.910;22.404;2023-09-30T10:17:59;10.77;;;5.60;;
82646;SDS011;72325;41.910;22.404;2023-09-30T10:20:28;13.27;;;5.70;;
82646;SDS011;72325;41.910;22.404;2023-09-30T10:25:39;15.02;;;6.95;;
82646;SDS011;72325;41.910;22.404;2023-09-30T10:31:10;11.73;;;6.28;;
82646;SDS011;72325;41.910;22.404;2023-09-30T10:34:02;9.07;;;6.10;;
82646;SDS011;72325;41.910;22.404;2023-09-30T10:36:26;18.25;;;9.40;;
82646;SDS011;72325;41.910;22.404;2023-09-30T10:38:53;44.05;;;19.02;;
82646;SDS011;72325;41.910;22.404;2023-09-30T10:46:45;14.70;;;6.95;;
82646;SDS011;72325;41.910;22.404;2023-09-30T10:49:15;9.20;;;6.28;;
82646;SDS011;72325;41.910;22.404;2023-09-30T10:51:44;13.13;;;7.05;;
82646;SDS011;72325;41.910;22.404;2023-09-30T10:54:12;14.68;;;8.15;;
82646;SDS011;72325;41.910;22.404;2023-09-30T10:56:38;13.48;;;7.25;;
82646;SDS011;72325;41.910;22.404;2023-09-30T10:59:04;13.90;;;7.13;;
82646;SDS011;72325;41.910;22.404;2023-09-30T11:01:33;8.70;;;6.30;;
82646;SDS011;72325;41.910;22.404;2023-09-30T11:04:01;14.55;;;8.10;;
82646;SDS011;72325;41.910;22.404;2023-09-30T11:06:29;14.30;;;9.20;;
82646;SDS011;72325;41.910;22.404;2023-09-30T11:08:56;11.90;;;7.18;;
82646;SDS011;72325;41.910;22.404;2023-09-30T11:13:49;11.52;;;6.18;;
82646;SDS011;72325;41.910;22.404;2023-09-30T11:16:16;15.38;;;7.82;;
82646;SDS011;72325;41.910;22.404;2023-09-30T11:18:42;14.85;;;9.77;;
82646;SDS011;72325;41.910;22.404;2023-09-30T11:21:12;10.50;;;6.38;;
82646;SDS011;72325;41.910;22.404;2023-09-30T11:23:39;11.55;;;7.13;;
82646;SDS011;72325;41.910;22.404;2023-09-30T11:26:06;10.27;;;6.15;;
82646;SDS011;72325;41.910;22.404;2023-09-30T11:28:36;10.43;;;7.35;;
82646;SDS011;72325;41.910;22.404;2023-09-30T11:31:02;8.70;;;5.78;;
82646;SDS011;72325;41.910;22.404;2023-09-30T11:33:30;11.45;;;5.82;;
82646;SDS011;72325;41.910;22.404;2023-09-30T11:36:02;9.60;;;5.60;;
82646;SDS011;72325;41.910;22.404;2023-09-30T11:38:29;9.10;;;5.97;;
82646;SDS011;72325;41.910;22.404;2023-09-30T11:41:05;9.07;;;6.07;;
82646;SDS011;72325;41.910;22.404;2023-09-30T11:43:32;7.10;;;5.30;;
82646;SDS011;72325;41.910;22.404;2023-09-30T11:46:05;7.43;;;5.07;;
82646;SDS011;72325;41.910;22.404;2023-09-30T11:48:32;12.52;;;5.50;;
82646;SDS011;72325;41.910;22.404;2023-09-30T11:51:01;10.70;;;5.97;;
82646;SDS011;72325;41.910;22.404;2023-09-30T11:53:32;10.98;;;5.90;;
82646;SDS011;72325;41.910;22.404;2023-09-30T11:55:58;10.57;;;5.97;;
82646;SDS011;72325;41.910;22.404;2023-09-30T11:58:27;10.05;;;5.85;;
82646;SDS011;72325;41.910;22.404;2023-09-30T12:00:57;11.95;;;5.57;;
82646;SDS011;72325;41.910;22.404;2023-09-30T12:03:24;9.40;;;6.43;;
82646;SDS011;72325;41.910;22.404;2023-09-30T12:05:52;9.50;;;5.50;;
82646;SDS011;72325;41.910;22.404;2023-09-30T12:08:20;8.55;;;5.47;;
82646;SDS011;72325;41.910;22.404;2023-09-30T12:10:46;9.07;;;5.43;;
82646;SDS011;72325;41.910;22.404;2023-09-30T12:13:13;8.88;;;5.40;;
82646;SDS011;72325;41.910;22.404;2023-09-30T12:15:40;11.38;;;5.38;;
82646;SDS011;72325;41.910;22.404;2023-09-30T12:18:06;12.80;;;5.47;;
82646;SDS011;72325;41.910;22.404;2023-09-30T12:20:32;10.98;;;5.57;;
82646;SDS011;72325;41.910;22.404;2023-09-30T12:22:58;9.05;;;5.60;;
82646;SDS011;72325;41.910;22.404;2023-09-30T12:25:24;11.70;;;6.03;;
82646;SDS011;72325;41.910;22.404;2023-09-30T12:27:51;9.63;;;5.65;;
82646;SDS011;72325;41.910;22.404;2023-09-30T12:30:20;7.60;;;5.45;;
82646;SDS011;72325;41.910;22.404;2023-09-30T12:32:46;11.70;;;5.40;;
82646;SDS011;72325;41.910;22.404;2023-09-30T12:35:12;7.65;;;5.53;;
82646;SDS011;72325;41.910;22.404;2023-09-30T12:37:38;11.52;;;5.90;;
82646;SDS011;72325;41.910;22.404;2023-09-30T12:40:05;9.05;;;6.72;;
82646;SDS011;72325;41.910;22.404;2023-09-30T12:42:32;9.95;;;5.68;;
82646;SDS011;72325;41.910;22.404;2023-09-30T12:45:01;11.52;;;6.00;;
82646;SDS011;72325;41.910;22.404;2023-09-30T12:47:28;11.45;;;5.28;;
82646;SDS011;72325;41.910;22.404;2023-09-30T12:49:54;11.70;;;5.25;;
82646;SDS011;72325;41.910;22.404;2023-09-30T12:52:21;10.88;;;5.50;;
82646;SDS011;72325;41.910;22.404;2023-09-30T12:54:48;9.48;;;4.88;;
82646;SDS011;72325;41.910;22.404;2023-09-30T12:57:14;9.20;;;4.85;;
82646;SDS011;72325;41.910;22.404;2023-09-30T13:03:03;7.13;;;5.10;;
82646;SDS011;72325;41.910;22.404;2023-09-30T13:05:29;11.43;;;5.05;;
82646;SDS011;72325;41.910;22.404;2023-09-30T13:07:56;8.68;;;4.75;;
82646;SDS011;72325;41.910;22.404;2023-09-30T13:10:22;7.13;;;5.10;;
82646;SDS011;72325;41.910;22.404;2023-09-30T13:12:48;11.30;;;5.50;;
82646;SDS011;72325;41.910;22.404;2023-09-30T13:15:15;9.70;;;5.70;;
82646;SDS011;72325;41.910;22.404;2023-09-30T13:17:44;11.35;;;5.15;;
82646;SDS011;72325;41.910;22.404;2023-09-30T13:20:11;8.25;;;5.18;;
82646;SDS011;72325;41.910;22.404;2023-09-30T13:22:37;8.55;;;5.03;;
82646;SDS011;72325;41.910;22.404;2023-09-30T13:25:06;9.73;;;5.03;;
82646;SDS011;72325;41.910;22.404;2023-09-30T13:27:39;10.40;;;6.05;;
82646;SDS011;72325;41.910;22.404;2023-09-30T13:30:05;9.18;;;6.32;;
82646;SDS011;72325;41.910;22.404;2023-09-30T13:32:33;7.78;;;5.38;;
82646;SDS011;72325;41.910;22.404;2023-09-30T13:35:03;7.38;;;5.35;;
82646;SDS011;72325;41.910;22.404;2023-09-30T13:39:58;12.35;;;6.88;;
82646;SDS011;72325;41.910;22.404;2023-09-30T13:42:25;9.02;;;5.72;;
82646;SDS011;72325;41.910;22.404;2023-09-30T13:44:51;11.20;;;6.30;;
82646;SDS011;72325;41.910;22.404;2023-09-30T13:47:17;11.35;;;6.78;;
82646;SDS011;72325;41.910;22.404;2023-09-30T13:49:43;10.05;;;6.13;;
82646;SDS011;72325;41.910;22.404;2023-09-30T13:52:11;7.60;;;5.82;;
82646;SDS011;72325;41.910;22.404;2023-09-30T13:54:37;12.32;;;5.72;;
82646;SDS011;72325;41.910;22.404;2023-09-30T13:57:03;8.18;;;5.70;;
82646;SDS011;72325;41.910;22.404;2023-09-30T14:02:33;7.13;;;5.43;;
82646;SDS011;72325;41.910;22.404;2023-09-30T14:05:01;11.65;;;7.15;;
82646;SDS011;72325;41.910;22.404;2023-09-30T14:07:27;9.95;;;5.88;;
82646;SDS011;72325;41.910;22.404;2023-09-30T14:09:53;9.80;;;6.50;;
82646;SDS011;72325;41.910;22.404;2023-09-30T14:12:19;10.32;;;6.13;;
82646;SDS011;72325;41.910;22.404;2023-09-30T14:17:49;12.20;;;5.10;;
82646;SDS011;72325;41.910;22.404;2023-09-30T14:20:15;9.88;;;4.70;;
82646;SDS011;72325;41.910;22.404;2023-09-30T14:22:41;8.18;;;6.03;;
82646;SDS011;72325;41.910;22.404;2023-09-30T14:25:07;8.50;;;5.78;;
82646;SDS011;72325;41.910;22.404;2023-09-30T14:27:33;9.95;;;5.25;;
82646;SDS011;72325;41.910;22.404;2023-09-30T14:29:59;8.02;;;4.68;;
82646;SDS011;72325;41.910;22.404;2023-09-30T14:32:26;6.05;;;4.90;;
82646;SDS011;72325;41.910;22.404;2023-09-30T14:34:52;14.07;;;4.93;;
82646;SDS011;72325;41.910;22.404;2023-09-30T14:37:18;7.15;;;4.40;;
82646;SDS011;72325;41.910;22.404;2023-09-30T14:39:44;7.65;;;4.70;;
82646;SDS011;72325;41.910;22.404;2023-09-30T14:42:10;8.48;;;4.53;;
82646;SDS011;72325;41.910;22.404;2023-09-30T14:47:40;6.78;;;4.20;;
82646;SDS011;72325;41.910;22.404;2023-09-30T14:50:07;7.30;;;4.50;;
82646;SDS011;72325;41.910;22.404;2023-09-30T14:52:33;8.95;;;4.20;;
82646;SDS011;72325;41.910;22.404;2023-09-30T14:54:59;7.95;;;4.90;;
82646;SDS011;72325;41.910;22.404;2023-09-30T14:57:25;8.55;;;4.93;;
82646;SDS011;72325;41.910;22.404;2023-09-30T15:02:55;9.98;;;4.43;;
82646;SDS011;72325;41.910;22.404;2023-09-30T15:05:21;8.23;;;5.03;;
82646;SDS011;72325;41.910;22.404;2023-09-30T15:07:49;8.43;;;5.05;;
82646;SDS011;72325;41.910;22.404;2023-09-30T15:10:16;9.93;;;4.85;;
82646;SDS011;72325;41.910;22.404;2023-09-30T15:12:42;7.82;;;4.80;;
82646;SDS011;72325;41.910;22.404;2023-09-30T15:15:08;9.20;;;4.55;;
82646;SDS011;72325;41.910;22.404;2023-09-30T15:17:34;11.77;;;5.07;;
82646;SDS011;72325;41.910;22.404;2023-09-30T15:20:00;8.57;;;4.70;;
82646;SDS011;72325;41.910;22.404;2023-09-30T15:22:26;9.93;;;5.05;;
82646;SDS011;72325;41.910;22.404;2023-09-30T15:24:52;11.57;;;5.47;;
82646;SDS011;72325;41.910;22.404;2023-09-30T15:27:18;10.05;;;4.60;;
82646;SDS011;72325;41.910;22.404;2023-09-30T15:32:31;9.50;;;4.88;;
82646;SDS011;72325;41.910;22.404;2023-09-30T15:34:58;7.45;;;4.80;;
82646;SDS011;72325;41.910;22.404;2023-09-30T15:37:25;11.73;;;5.05;;
82646;SDS011;72325;41.910;22.404;2023-09-30T15:39:51;10.95;;;5.20;;
82646;SDS011;72325;41.910;22.404;2023-09-30T15:42:17;9.73;;;6.25;;
82646;SDS011;72325;41.910;22.404;2023-09-30T15:47:47;8.40;;;5.90;;
82646;SDS011;72325;41.910;22.404;2023-09-30T15:50:13;6.72;;;4.90;;
82646;SDS011;72325;41.910;22.404;2023-09-30T15:52:40;10.38;;;5.30;;
82646;SDS011;72325;41.910;22.404;2023-09-30T15:55:06;8.13;;;4.90;;
82646;SDS011;72325;41.910;22.404;2023-09-30T15:57:33;9.70;;;4.75;;
82646;SDS011;72325;41.910;22.404;2023-09-30T16:03:02;8.63;;;5.53;;
82646;SDS011;72325;41.910;22.404;2023-09-30T16:05:29;9.25;;;4.80;;
82646;SDS011;72325;41.910;22.404;2023-09-30T16:07:55;13.38;;;5.45;;
82646;SDS011;72325;41.910;22.404;2023-09-30T16:10:21;7.85;;;4.75;;
82646;SDS011;72325;41.910;22.404;2023-09-30T16:12:47;8.70;;;4.80;;
82646;SDS011;72325;41.910;22.404;2023-09-30T16:15:13;10.23;;;5.90;;
82646;SDS011;72325;41.910;22.404;2023-09-30T16:17:40;8.98;;;5.00;;
82646;SDS011;72325;41.910;22.404;2023-09-30T16:20:06;10.82;;;5.28;;
82646;SDS011;72325;41.910;22.404;2023-09-30T16:22:34;11.30;;;5.15;;
82646;SDS011;72325;41.910;22.404;2023-09-30T16:25:00;6.53;;;4.57;;
82646;SDS011;72325;41.910;22.404;2023-09-30T16:27:27;7.80;;;5.10;;